createdAt,value
2022-09-01T00:01:03.193Z,14.70
2022-09-01T00:03:29.791Z,14.70
2022-09-01T00:05:57.116Z,14.60
2022-09-01T00:08:23.684Z,14.50
2022-09-01T00:10:50.274Z,14.40
2022-09-01T00:13:16.843Z,14.30
2022-09-01T00:15:43.478Z,14.20
2022-09-01T00:18:10.149Z,14.20
2022-09-01T00:20:36.732Z,14.20
2022-09-01T00:23:03.304Z,14.20
2022-09-01T00:25:30.294Z,14.30
2022-09-01T00:28:00.250Z,14.40
2022-09-01T00:30:27.039Z,14.40
2022-09-01T00:32:53.617Z,14.40
2022-09-01T00:35:20.236Z,14.50
2022-09-01T00:37:46.883Z,14.50
2022-09-01T00:40:13.737Z,14.60
2022-09-01T00:42:40.529Z,14.60
2022-09-01T00:45:07.690Z,14.50
2022-09-01T00:47:36.207Z,14.50
2022-09-01T00:50:04.603Z,14.40
2022-09-01T00:52:32.240Z,14.40
2022-09-01T00:55:00.522Z,14.30
2022-09-01T00:57:27.098Z,14.30
2022-09-01T00:59:56.504Z,14.20
2022-09-01T01:02:23.281Z,14.20
2022-09-01T01:04:52.633Z,14.20
2022-09-01T01:07:20.160Z,14.20
2022-09-01T01:09:46.758Z,14.10
2022-09-01T01:12:13.909Z,14.10
2022-09-01T01:14:41.686Z,14.10
2022-09-01T01:17:12.392Z,14.00
2022-09-01T01:20:01.297Z,14.00
2022-09-01T01:22:55.800Z,13.90
2022-09-01T01:25:22.479Z,13.90
2022-09-01T01:27:49.061Z,13.90
2022-09-01T01:30:18.080Z,13.80
2022-09-01T01:32:45.680Z,13.70
2022-09-01T01:35:14.873Z,13.60
2022-09-01T01:37:45.782Z,13.50
2022-09-01T01:40:15.682Z,13.40
2022-09-01T01:42:46.018Z,13.40
2022-09-01T01:45:17.242Z,13.40
2022-09-01T01:47:47.375Z,13.30
2022-09-01T01:50:14.775Z,13.20
2022-09-01T01:52:41.940Z,13.20
2022-09-01T01:55:12.617Z,13.10
2022-09-01T01:57:40.058Z,13.10
2022-09-01T02:00:07.159Z,13.10
2022-09-01T02:02:33.789Z,13.00
2022-09-01T02:05:00.460Z,12.90
2022-09-01T02:07:27.448Z,12.90
2022-09-01T02:09:58.107Z,12.90
2022-09-01T02:12:25.091Z,12.90
2022-09-01T02:14:55.124Z,12.90
2022-09-01T02:17:22.168Z,12.90
2022-09-01T02:19:49.324Z,12.90
2022-09-01T02:22:15.913Z,12.80
2022-09-01T02:24:48.052Z,12.70
2022-09-01T02:27:15.664Z,12.70
2022-09-01T02:29:43.491Z,12.60
2022-09-01T02:32:11.614Z,12.50
2022-09-01T02:34:39.950Z,12.50
2022-09-01T02:37:06.561Z,12.50
2022-09-01T02:39:33.575Z,12.40
2022-09-01T02:42:01.160Z,12.40
2022-09-01T02:44:29.095Z,12.40
2022-09-01T02:46:55.966Z,12.40
2022-09-01T02:49:28.601Z,12.40
2022-09-01T02:52:01.177Z,12.40
2022-09-01T02:54:28.655Z,12.50
2022-09-01T02:56:55.443Z,12.50
2022-09-01T02:59:22.749Z,12.50
2022-09-01T03:01:49.773Z,12.50
2022-09-01T03:04:16.435Z,12.50
2022-09-01T03:06:43.077Z,12.50
2022-09-01T03:09:11.301Z,12.60
2022-09-01T03:11:38.814Z,12.50
2022-09-01T03:14:05.699Z,12.50
2022-09-01T03:16:33.202Z,12.40
2022-09-01T03:18:59.954Z,12.40
2022-09-01T03:21:26.548Z,12.40
2022-09-01T03:23:53.173Z,12.40
2022-09-01T03:26:22.007Z,12.40
2022-09-01T03:28:49.459Z,12.40
2022-09-01T03:31:16.096Z,12.40
2022-09-01T03:33:42.789Z,12.40
2022-09-01T03:36:15.044Z,12.40
2022-09-01T03:38:43.779Z,12.30
2022-09-01T03:41:12.932Z,12.20
2022-09-01T03:43:39.539Z,12.20
2022-09-01T03:46:20.230Z,12.10
2022-09-01T03:48:49.061Z,12.20
2022-09-01T03:51:15.657Z,12.30
2022-09-01T03:53:42.228Z,12.30
2022-09-01T03:56:08.988Z,12.30
2022-09-01T03:58:35.573Z,12.30
2022-09-01T04:01:04.797Z,12.40
2022-09-01T04:03:36.189Z,12.30
2022-09-01T04:06:03.989Z,12.30
2022-09-01T04:08:33.478Z,12.20
2022-09-01T04:11:02.688Z,12.20
2022-09-01T04:13:34.008Z,12.20
2022-09-01T04:16:00.632Z,12.20
2022-09-01T04:18:27.237Z,12.20
2022-09-01T04:20:57.447Z,12.10
2022-09-01T04:23:29.882Z,12.10
2022-09-01T04:25:57.451Z,12.00
2022-09-01T04:28:24.703Z,12.10
2022-09-01T04:30:56.083Z,12.00
2022-09-01T04:33:24.562Z,12.00
2022-09-01T04:35:52.132Z,12.00
2022-09-01T04:38:18.848Z,11.90
2022-09-01T04:40:45.560Z,11.90
2022-09-01T04:43:12.237Z,11.90
2022-09-01T04:45:38.949Z,11.90
2022-09-01T04:48:05.568Z,12.00
2022-09-01T04:50:32.840Z,11.90
2022-09-01T04:53:02.149Z,12.00
2022-09-01T04:55:29.834Z,12.10
2022-09-01T04:57:57.540Z,12.10
2022-09-01T05:00:25.302Z,12.10
2022-09-01T05:02:53.290Z,12.10
2022-09-01T05:05:23.020Z,12.20
2022-09-01T05:07:55.414Z,12.30
2022-09-01T05:10:22.372Z,12.40
2022-09-01T05:12:49.508Z,12.60
2022-09-01T05:15:17.125Z,12.70
2022-09-01T05:17:44.040Z,12.90
2022-09-01T05:20:11.715Z,13.10
2022-09-01T05:22:40.912Z,13.30
2022-09-01T05:25:14.456Z,13.50
2022-09-01T05:27:41.538Z,13.80
2022-09-01T05:30:11.106Z,14.10
2022-09-01T05:32:38.920Z,14.60
2022-09-01T05:35:08.198Z,15.80
2022-09-01T05:37:37.350Z,17.00
2022-09-01T05:40:05.084Z,18.40
2022-09-01T05:42:32.057Z,19.30
2022-09-01T05:44:58.644Z,19.80
2022-09-01T05:47:26.288Z,20.40
2022-09-01T05:49:53.736Z,21.00
2022-09-01T05:52:24.945Z,21.30
2022-09-01T05:54:52.219Z,21.60
2022-09-01T05:57:33.884Z,21.50
2022-09-01T06:00:02.727Z,21.80
2022-09-01T06:02:30.827Z,22.00
2022-09-01T06:04:57.630Z,22.00
2022-09-01T06:07:28.415Z,21.10
2022-09-01T06:09:54.989Z,21.10
2022-09-01T06:12:23.879Z,21.60
2022-09-01T06:14:51.055Z,22.10
2022-09-01T06:17:19.469Z,22.40
2022-09-01T06:19:46.709Z,22.70
2022-09-01T06:22:13.351Z,23.00
2022-09-01T06:24:40.753Z,23.10
2022-09-01T06:27:10.516Z,23.70
2022-09-01T06:29:39.631Z,23.60
2022-09-01T06:32:09.677Z,23.70
2022-09-01T06:34:36.923Z,23.90
2022-09-01T06:37:03.495Z,24.10
2022-09-01T06:39:31.694Z,24.70
2022-09-01T06:42:04.696Z,24.80
2022-09-01T06:44:32.623Z,25.00
2022-09-01T06:47:02.258Z,25.30
2022-09-01T06:49:36.421Z,25.20
2022-09-01T06:52:03.787Z,25.50
2022-09-01T06:54:31.323Z,25.80
2022-09-01T06:58:03.515Z,25.60
2022-09-01T07:02:39.549Z,26.10
2022-09-01T07:05:07.932Z,26.30
2022-09-01T07:10:23.052Z,25.60
2022-09-01T07:13:08.626Z,25.00
2022-09-01T07:18:26.387Z,25.00
2022-09-01T07:21:36.621Z,25.30
2022-09-01T07:26:27.000Z,25.20
2022-09-01T07:29:00.943Z,25.20
2022-09-01T07:39:51.481Z,25.30
2022-09-01T07:41:43.316Z,25.60
2022-09-01T07:47:55.872Z,25.30
2022-09-01T07:50:39.830Z,25.10
2022-09-01T07:53:09.225Z,25.40
2022-09-01T07:55:36.253Z,25.80
2022-09-01T07:58:02.887Z,26.00
2022-09-01T08:00:31.783Z,25.90
2022-09-01T08:02:58.632Z,26.10
2022-09-01T08:05:27.002Z,26.60
2022-09-01T08:07:53.848Z,26.80
2022-09-01T08:10:20.553Z,26.60
2022-09-01T08:12:56.345Z,26.60
2022-09-01T08:15:40.493Z,26.70
2022-09-01T08:18:07.566Z,26.80
2022-09-01T08:20:37.708Z,26.50
2022-09-01T08:23:04.298Z,26.60
2022-09-01T08:25:31.279Z,26.40
2022-09-01T08:28:00.908Z,26.20
2022-09-01T08:30:28.333Z,25.80
2022-09-01T08:32:54.970Z,25.00
2022-09-01T08:35:21.592Z,24.30
2022-09-01T08:37:48.193Z,23.70
2022-09-01T08:40:17.931Z,23.40
2022-09-01T08:43:01.539Z,23.00
2022-09-01T08:45:31.973Z,22.90
2022-09-01T08:49:09.683Z,22.60
2022-09-01T08:50:51.816Z,22.70
2022-09-01T08:53:26.668Z,22.90
2022-09-01T08:55:55.615Z,23.00
2022-09-01T08:58:22.518Z,23.10
2022-09-01T09:00:55.101Z,23.30
2022-09-01T09:03:41.212Z,22.80
2022-09-01T09:06:20.600Z,22.90
2022-09-01T09:09:06.223Z,23.00
2022-09-01T09:11:51.859Z,23.00
2022-09-01T09:14:36.672Z,22.90
2022-09-01T09:17:04.317Z,22.80
2022-09-01T09:19:37.928Z,22.60
2022-09-01T09:22:05.183Z,22.60
2022-09-01T09:24:47.226Z,22.80
2022-09-01T09:27:17.051Z,22.70
2022-09-01T09:29:45.459Z,22.80
2022-09-01T09:34:59.584Z,22.20
2022-09-01T09:37:27.808Z,22.20
2022-09-01T09:40:15.960Z,22.00
2022-09-01T09:42:53.831Z,22.20
2022-09-01T09:45:34.154Z,22.00
2022-09-01T09:48:01.239Z,22.20
2022-09-01T09:50:31.740Z,22.30
2022-09-01T09:53:18.222Z,22.60
2022-09-01T09:55:53.988Z,22.50
2022-09-01T09:58:26.634Z,22.80
2022-09-01T10:01:00.908Z,22.60
2022-09-01T10:03:42.501Z,22.50
2022-09-01T10:06:12.719Z,22.80
2022-09-01T10:08:44.687Z,22.80
2022-09-01T10:11:24.112Z,23.50
2022-09-01T10:13:52.268Z,23.20
2022-09-01T10:16:22.058Z,23.40
2022-09-01T10:18:48.817Z,23.90
2022-09-01T10:21:16.272Z,23.70
2022-09-01T10:23:43.244Z,23.60
2022-09-01T10:26:15.791Z,23.70
2022-09-01T10:28:56.109Z,23.90
2022-09-01T10:31:22.770Z,24.10
2022-09-01T10:33:49.610Z,23.60
2022-09-01T10:36:16.273Z,23.60
2022-09-01T10:38:46.834Z,23.20
2022-09-01T10:41:39.366Z,22.80
2022-09-01T10:44:10.646Z,22.20
2022-09-01T10:46:40.734Z,22.30
2022-09-01T10:49:46.440Z,22.40
2022-09-01T10:52:33.225Z,22.40
2022-09-01T10:55:00.350Z,22.50
2022-09-01T10:57:42.359Z,22.80
2022-09-01T11:00:39.998Z,22.90
2022-09-01T11:06:12.051Z,23.40
2022-09-01T11:08:55.901Z,23.50
2022-09-01T11:11:29.341Z,23.30
2022-09-01T11:13:56.445Z,23.30
2022-09-01T11:16:45.758Z,23.10
2022-09-01T11:19:18.328Z,23.40
2022-09-01T11:21:44.921Z,23.30
2022-09-01T11:24:52.044Z,23.50
2022-09-01T11:27:43.626Z,24.40
2022-09-01T11:30:10.412Z,24.80
2022-09-01T11:32:37.181Z,25.10
2022-09-01T11:35:05.297Z,24.90
2022-09-01T11:37:33.410Z,24.50
2022-09-01T11:40:04.783Z,24.20
2022-09-01T11:42:41.491Z,23.90
2022-09-01T11:45:21.934Z,23.60
2022-09-01T11:47:55.255Z,23.40
2022-09-01T11:50:22.940Z,23.10
2022-09-01T11:53:00.148Z,22.70
2022-09-01T11:55:33.436Z,22.40
2022-09-01T11:58:00.116Z,22.30
2022-09-01T12:00:27.801Z,22.30
2022-09-01T12:02:55.135Z,22.30
2022-09-01T12:05:30.908Z,22.50
2022-09-01T12:07:57.664Z,22.50
2022-09-01T12:10:28.283Z,22.50
2022-09-01T12:13:05.146Z,22.60
2022-09-01T12:15:31.761Z,22.70
2022-09-01T12:18:18.910Z,22.80
2022-09-01T12:20:46.457Z,22.80
2022-09-01T12:23:33.291Z,22.90
2022-09-01T12:26:01.675Z,22.80
2022-09-01T12:28:33.703Z,22.90
2022-09-01T12:31:00.529Z,22.80
2022-09-01T12:33:27.121Z,22.70
2022-09-01T12:35:59.756Z,23.20
2022-09-01T12:38:28.495Z,23.60
2022-09-01T12:40:55.695Z,23.60
2022-09-01T12:43:28.407Z,23.80
2022-09-01T12:45:55.144Z,23.90
2022-09-01T12:48:30.001Z,23.90
2022-09-01T12:51:00.580Z,24.10
2022-09-01T12:53:30.616Z,24.40
2022-09-01T12:56:04.899Z,24.30
2022-09-01T12:58:31.949Z,24.20
2022-09-01T13:01:16.223Z,24.40
2022-09-01T13:03:43.282Z,24.70
2022-09-01T13:06:10.018Z,24.70
2022-09-01T13:08:37.769Z,24.70
2022-09-01T13:11:05.716Z,24.90
2022-09-01T13:13:32.437Z,25.00
2022-09-01T13:16:01.476Z,25.20
2022-09-01T13:18:28.329Z,25.30
2022-09-01T13:20:55.884Z,24.50
2022-09-01T13:23:22.819Z,23.60
2022-09-01T13:25:49.525Z,23.40
2022-09-01T13:28:17.723Z,23.30
2022-09-01T13:30:46.765Z,23.40
2022-09-01T13:33:21.009Z,23.10
2022-09-01T13:35:49.876Z,23.00
2022-09-01T13:38:16.858Z,22.90
2022-09-01T13:40:46.722Z,22.90
2022-09-01T13:43:15.137Z,22.90
2022-09-01T13:45:42.076Z,22.90
2022-09-01T13:48:16.658Z,22.80
2022-09-01T13:53:31.056Z,22.40
2022-09-01T13:58:29.606Z,22.20
2022-09-01T14:00:59.343Z,22.60
2022-09-01T14:03:26.005Z,23.00
2022-09-01T14:05:52.668Z,23.50
2022-09-01T14:08:19.878Z,23.80
2022-09-01T14:10:48.778Z,24.10
2022-09-01T14:13:15.721Z,24.10
2022-09-01T14:15:42.351Z,24.10
2022-09-01T14:18:08.943Z,23.70
2022-09-01T14:20:39.439Z,23.30
2022-09-01T14:23:06.812Z,23.30
2022-09-01T14:25:33.525Z,23.50
2022-09-01T14:28:02.335Z,23.40
2022-09-01T14:30:31.737Z,23.60
2022-09-01T14:33:01.775Z,23.80
2022-09-01T14:35:28.360Z,23.70
2022-09-01T14:37:55.028Z,23.60
2022-09-01T14:40:22.503Z,23.50
2022-09-01T14:42:49.778Z,23.20
2022-09-01T14:45:18.648Z,23.00
2022-09-01T14:47:46.202Z,23.00
2022-09-01T14:50:14.176Z,22.90
2022-09-01T14:52:42.892Z,22.90
2022-09-01T14:55:09.524Z,22.80
2022-09-01T14:57:36.870Z,22.80
2022-09-01T15:00:06.269Z,22.60
2022-09-01T15:02:33.304Z,22.50
2022-09-01T15:05:00.035Z,22.50
2022-09-01T15:07:26.816Z,22.50
2022-09-01T15:09:53.394Z,22.50
2022-09-01T15:12:20.022Z,22.60
2022-09-01T15:14:46.734Z,22.60
2022-09-01T15:17:13.316Z,22.60
2022-09-01T15:19:39.907Z,22.40
2022-09-01T15:22:10.802Z,22.30
2022-09-01T15:24:37.422Z,22.30
2022-09-01T15:27:04.179Z,22.20
2022-09-01T15:29:34.005Z,22.20
2022-09-01T15:32:01.578Z,22.30
2022-09-01T15:34:28.273Z,22.20
2022-09-01T15:36:54.870Z,22.20
2022-09-01T15:39:21.572Z,22.20
2022-09-01T15:41:48.166Z,22.10
2022-09-01T15:44:14.757Z,22.20
2022-09-01T15:46:42.964Z,22.30
2022-09-01T15:49:11.217Z,22.20
2022-09-01T15:51:38.575Z,22.10
2022-09-01T15:54:06.312Z,22.00
2022-09-01T15:56:32.932Z,21.90
2022-09-01T15:59:00.192Z,22.00
2022-09-01T16:01:28.646Z,22.20
2022-09-01T16:03:55.708Z,22.40
2022-09-01T16:06:22.956Z,22.50
2022-09-01T16:08:50.179Z,22.50
2022-09-01T16:11:16.768Z,22.30
2022-09-01T16:13:43.389Z,22.20
2022-09-01T16:16:23.720Z,22.10
2022-09-01T16:19:09.174Z,22.20
2022-09-01T16:21:41.941Z,22.20
2022-09-01T16:24:09.459Z,22.20
2022-09-01T16:26:36.277Z,22.10
2022-09-01T16:29:03.500Z,22.20
2022-09-01T16:31:30.935Z,22.20
2022-09-01T16:33:59.739Z,22.20
2022-09-01T16:36:26.560Z,22.10
2022-09-01T16:38:53.992Z,21.90
2022-09-01T16:41:25.614Z,21.80
2022-09-01T16:44:07.097Z,21.80
2022-09-01T16:46:35.450Z,21.80
2022-09-01T16:49:18.043Z,21.80
2022-09-01T16:51:47.657Z,21.70
2022-09-01T16:54:24.841Z,21.70
2022-09-01T16:57:10.328Z,21.80
2022-09-01T16:59:40.325Z,21.70
2022-09-01T17:02:16.106Z,21.70
2022-09-01T17:05:08.730Z,21.70
2022-09-01T17:07:38.772Z,21.70
2022-09-01T17:10:19.211Z,21.60
2022-09-01T17:12:55.888Z,21.60
2022-09-01T17:15:28.439Z,21.50
2022-09-01T17:18:22.578Z,21.40
2022-09-01T17:20:58.046Z,21.40
2022-09-01T17:23:29.047Z,21.30
2022-09-01T17:26:01.877Z,21.30
2022-09-01T17:28:33.734Z,21.20
2022-09-01T17:31:03.348Z,21.10
2022-09-01T17:33:33.211Z,21.10
2022-09-01T17:36:03.440Z,21.00
2022-09-01T17:38:36.055Z,20.90
2022-09-01T17:41:05.812Z,20.90
2022-09-01T17:43:45.976Z,20.90
2022-09-01T17:46:18.893Z,20.70
2022-09-01T17:48:57.264Z,20.70
2022-09-01T17:51:26.854Z,20.60
2022-09-01T17:54:09.002Z,20.50
2022-09-01T17:56:55.847Z,20.40
2022-09-01T17:59:31.795Z,20.30
2022-09-01T18:02:10.075Z,20.20
2022-09-01T18:04:39.733Z,20.10
2022-09-01T18:07:11.080Z,20.00
2022-09-01T18:09:41.517Z,20.00
2022-09-01T18:12:09.916Z,19.90
2022-09-01T18:14:44.683Z,19.80
2022-09-01T18:17:33.559Z,19.70
2022-09-01T18:20:17.261Z,19.60
2022-09-01T18:22:49.127Z,19.50
2022-09-01T18:25:18.039Z,19.40
2022-09-01T18:27:46.627Z,19.30
2022-09-01T18:30:26.173Z,19.30
2022-09-01T18:33:23.391Z,19.30
2022-09-01T18:35:54.549Z,19.20
2022-09-01T18:38:27.202Z,19.20
2022-09-01T18:41:01.473Z,19.20
2022-09-01T18:43:30.070Z,19.10
2022-09-01T18:46:10.128Z,19.00
2022-09-01T18:48:55.104Z,18.90
2022-09-01T18:51:24.681Z,18.80
2022-09-01T18:53:53.230Z,18.70
2022-09-01T18:56:40.580Z,18.60
2022-09-01T18:59:10.537Z,18.50
2022-09-01T19:02:09.733Z,18.50
2022-09-01T19:04:38.221Z,18.30
2022-09-01T19:07:23.548Z,18.30
2022-09-01T19:09:55.068Z,18.30
2022-09-01T19:12:21.625Z,18.20
2022-09-01T19:14:52.341Z,18.20
2022-09-01T19:17:37.479Z,18.10
2022-09-01T19:20:08.692Z,18.10
2022-09-01T19:22:38.668Z,18.10
2022-09-01T19:25:25.494Z,18.00
2022-09-01T19:28:00.765Z,18.00
2022-09-01T19:30:27.348Z,17.90
2022-09-01T19:32:54.424Z,17.90
2022-09-01T19:35:20.992Z,17.80
2022-09-01T19:37:50.971Z,17.70
2022-09-01T19:40:25.166Z,17.60
2022-09-01T19:42:51.964Z,17.50
2022-09-01T19:45:29.743Z,17.40
2022-09-01T19:47:56.367Z,17.30
2022-09-01T19:50:24.522Z,17.20
2022-09-01T19:53:11.784Z,17.10
2022-09-01T19:55:53.496Z,17.00
2022-09-01T19:58:24.852Z,16.90
2022-09-01T20:00:52.422Z,16.80
2022-09-01T20:03:24.709Z,16.80
2022-09-01T20:05:55.778Z,16.70
2022-09-01T20:08:34.661Z,16.60
2022-09-01T20:11:05.129Z,16.60
2022-09-01T20:13:39.548Z,16.60
2022-09-01T20:16:19.643Z,16.60
2022-09-01T20:18:50.218Z,16.60
2022-09-01T20:21:21.561Z,16.50
2022-09-01T20:23:53.459Z,16.40
2022-09-01T20:26:23.166Z,16.40
2022-09-01T20:28:49.745Z,16.30
2022-09-01T20:31:18.628Z,16.30
2022-09-01T20:34:05.468Z,16.30
2022-09-01T20:36:43.514Z,16.30
2022-09-01T20:39:34.352Z,16.20
2022-09-01T20:42:15.605Z,16.10
2022-09-01T20:44:50.853Z,16.00
2022-09-01T20:47:17.450Z,15.90
2022-09-01T20:49:44.704Z,15.90
2022-09-01T20:52:33.228Z,15.90
2022-09-01T20:55:03.947Z,15.90
2022-09-01T20:57:50.747Z,15.90
2022-09-01T21:00:26.880Z,15.80
2022-09-01T21:03:01.956Z,15.80
2022-09-01T21:05:28.723Z,15.80
2022-09-01T21:08:14.503Z,15.80
2022-09-01T21:10:59.952Z,15.70
2022-09-01T21:13:45.728Z,15.60
2022-09-01T21:16:30.742Z,15.60
2022-09-01T21:19:04.679Z,15.50
2022-09-01T21:21:31.260Z,15.30
2022-09-01T21:23:57.849Z,15.20
2022-09-01T21:26:24.457Z,15.10
2022-09-01T21:28:53.532Z,15.10
2022-09-01T21:31:20.225Z,15.10
2022-09-01T21:33:46.874Z,15.10
2022-09-01T21:36:13.449Z,15.20
2022-09-01T21:38:40.210Z,15.20
2022-09-01T21:41:10.852Z,15.20
2022-09-01T21:43:41.202Z,15.20
2022-09-01T21:46:08.079Z,15.10
2022-09-01T21:48:34.925Z,15.10
2022-09-01T21:51:04.532Z,15.00
2022-09-01T21:53:31.652Z,14.90
2022-09-01T21:55:58.263Z,15.00
2022-09-01T21:58:24.852Z,15.00
2022-09-01T22:00:51.992Z,15.10
2022-09-01T22:03:18.655Z,15.00
2022-09-01T22:05:45.384Z,15.00
2022-09-01T22:08:12.781Z,15.10
2022-09-01T22:10:49.716Z,15.10
2022-09-01T22:13:16.404Z,15.10
2022-09-01T22:15:43.801Z,15.10
2022-09-01T22:18:10.645Z,15.00
2022-09-01T22:20:37.414Z,15.00
2022-09-01T22:23:04.115Z,15.00
2022-09-01T22:25:31.423Z,14.90
2022-09-01T22:27:58.865Z,14.90
2022-09-01T22:30:25.448Z,14.80
2022-09-01T22:32:52.049Z,14.80
2022-09-01T22:35:18.673Z,14.80
2022-09-01T22:37:45.644Z,14.70
2022-09-01T22:40:12.578Z,14.70
2022-09-01T22:42:39.228Z,14.60
2022-09-01T22:45:06.186Z,14.60
2022-09-01T22:47:37.091Z,14.50
2022-09-01T22:50:05.239Z,14.50
2022-09-01T22:52:31.858Z,14.50
2022-09-01T22:54:58.599Z,14.40
2022-09-01T22:57:25.842Z,14.40
2022-09-01T22:59:52.489Z,14.40
2022-09-01T23:02:19.272Z,14.30
2022-09-01T23:04:46.620Z,14.30
2022-09-01T23:07:13.191Z,14.20
2022-09-01T23:09:39.836Z,14.20
2022-09-01T23:12:06.559Z,14.20
2022-09-01T23:14:33.149Z,14.10
2022-09-01T23:16:59.788Z,14.10
2022-09-01T23:19:26.444Z,14.10
2022-09-01T23:21:53.042Z,14.00
2022-09-01T23:24:19.983Z,14.10
2022-09-01T23:26:47.329Z,14.10
2022-09-01T23:29:13.944Z,14.00
2022-09-01T23:31:40.580Z,14.00
2022-09-01T23:34:07.420Z,14.10
2022-09-01T23:36:33.999Z,14.10
2022-09-01T23:39:00.602Z,14.00
2022-09-01T23:41:31.781Z,13.90
2022-09-01T23:43:58.927Z,13.90
2022-09-01T23:46:26.277Z,13.80
2022-09-01T23:48:52.872Z,13.80
2022-09-01T23:51:19.704Z,13.80
2022-09-01T23:53:46.331Z,13.70
2022-09-01T23:56:17.443Z,13.60
2022-09-01T23:58:44.137Z,13.60
